Time;durP1;ratioP1;P1;durP2;ratioP2;P2;SDS_P1;SDS_P2;PMS_P1;PMS_P2;Temp;Humidity;BMP_temperature;BMP_pressure;BME280_temperature;BME280_humidity;BME280_pressure;Samples;Min_cycle;Max_cycle;Signal;HPM_P1;HPM_P2
2022/01/18 00:02:23;;;;;;;15.52;7.07;;;;;;;7.10;100.00;102858.06;5048944;28;20104;-79
2022/01/18 00:04:49;;;;;;;12.82;6.03;;;;;;;7.11;100.00;102858.91;5031139;28;20458;-80
2022/01/18 00:07:14;;;;;;;19.67;10.45;;;;;;;7.03;100.00;102852.25;5016065;28;20044;-86
2022/01/18 00:09:40;;;;;;;19.73;9.13;;;;;;;6.91;100.00;102852.22;5058714;28;20033;-78
2022/01/18 00:12:42;;;;;;;20.70;8.25;;;;;;;6.82;100.00;102856.34;5021879;28;20564;-83
2022/01/18 00:15:15;;;;;;;11.07;4.57;;;;;;;6.75;100.00;102855.03;5042120;28;20435;-80
2022/01/18 00:17:42;;;;;;;16.33;8.18;;;;;;;6.56;100.00;102850.88;5033385;28;20067;-82
2022/01/18 00:20:16;;;;;;;21.70;7.57;;;;;;;6.38;100.00;102852.91;5012185;28;20047;-79
2022/01/18 00:22:41;;;;;;;;;;;;;;;6.16;100.00;102853.38;5049596;28;20070;-79
2022/01/18 00:25:07;;;;;;;14.27;6.13;;;;;;;6.07;100.00;102843.28;5012145;28;19955;-87
2022/01/18 00:27:35;;;;;;;23.27;8.07;;;;;;;5.91;100.00;102838.00;5030212;28;20029;-80
2022/01/18 00:34:58;;;;;;;16.50;6.93;;;;;;;5.50;100.00;102840.50;5031466;28;20044;-76
2022/01/18 00:39:49;;;;;;;15.70;6.35;;;;;;;5.53;100.00;102852.78;5061373;28;20082;-78
2022/01/18 00:42:15;;;;;;;26.58;8.77;;;;;;;5.54;100.00;102855.38;5015241;28;20387;-78
2022/01/18 00:44:41;;;;;;;26.35;8.82;;;;;;;5.69;100.00;102856.28;5028481;28;20128;-77
2022/01/18 00:47:07;;;;;;;23.90;9.05;;;;;;;5.88;100.00;102856.88;5048622;28;20025;-77
2022/01/18 00:49:40;;;;;;;16.08;6.88;;;;;;;5.98;100.00;102859.88;5049421;28;20123;-78
2022/01/18 00:52:08;;;;;;;15.25;6.05;;;;;;;5.93;100.00;102819.22;5016156;28;20040;-81
2022/01/18 00:54:39;;;;;;;18.27;8.77;;;;;;;6.18;100.00;102861.28;5030984;28;20050;-80
2022/01/18 00:57:05;;;;;;;22.75;9.80;;;;;;;6.32;100.00;102855.94;5017181;28;20498;-79
2022/01/18 00:59:31;;;;;;;28.52;9.82;;;;;;;6.47;100.00;102851.44;5034590;28;20504;-82
2022/01/18 01:01:57;;;;;;;9.38;4.70;;;;;;;6.53;100.00;102845.69;5016418;28;20036;-78
2022/01/18 01:04:26;;;;;;;29.00;9.30;;;;;;;6.52;100.00;102832.44;5031924;28;20032;-79
2022/01/18 01:06:52;;;;;;;18.25;7.57;;;;;;;6.41;100.00;102819.78;5050985;28;20029;-79
2022/01/18 01:09:17;;;;;;;17.95;6.72;;;;;;;6.33;100.00;102811.41;5015159;28;20090;-78
2022/01/18 01:11:43;;;;;;;9.75;4.78;;;;;;;6.30;100.00;102822.28;5050302;28;20064;-80
2022/01/18 01:14:16;;;;;;;17.23;6.10;;;;;;;6.27;100.00;102809.09;5048712;28;20471;-79
2022/01/18 01:16:51;;;;;;;19.48;8.20;;;;;;;6.34;100.00;102818.44;5034522;28;20028;-79
2022/01/18 01:33:10;;;;;;;15.52;6.32;;;;;;;6.74;100.00;102794.47;5033019;28;20043;-79
2022/01/18 01:35:42;;;;;;;13.27;5.53;;;;;;;6.80;100.00;102812.78;5036736;28;20529;-82
2022/01/18 01:43:49;;;;;;;12.35;5.90;;;;;;;6.68;100.00;102785.06;5036596;28;20116;-81
2022/01/18 01:46:17;;;;;;;21.27;8.05;;;;;;;6.73;100.00;102790.09;5017140;28;20032;-77
2022/01/18 01:48:46;;;;;;;13.95;7.35;;;;;;;6.57;100.00;102782.22;5033455;28;20032;-81
2022/01/18 01:51:11;;;;;;;13.50;5.72;;;;;;;6.71;100.00;102794.69;5018695;28;20036;-78
2022/01/18 01:53:37;;;;;;;16.10;5.82;;;;;;;6.81;100.00;102790.47;5029798;28;20071;-77
2022/01/18 01:56:03;;;;;;;21.67;5.85;;;;;;;6.93;100.00;102786.09;5040734;28;20493;-86
2022/01/18 01:58:29;;;;;;;17.65;6.65;;;;;;;6.90;100.00;102787.16;5059421;28;20028;-78
2022/01/18 02:01:02;;;;;;;13.63;5.90;;;;;;;6.94;100.00;102786.00;5031468;28;20238;-77
2022/01/18 02:03:27;;;;;;;19.23;7.63;;;;;;;6.86;100.00;102766.09;5068156;28;20025;-80
2022/01/18 02:05:53;;;;;;;17.13;6.43;;;;;;;6.79;100.00;102760.28;5031885;28;20366;-77
2022/01/18 02:08:22;;;;;;;16.63;6.93;;;;;;;6.63;100.00;102752.41;5013820;28;20090;-78
2022/01/18 02:10:48;;;;;;;13.38;5.85;;;;;;;6.41;100.00;102744.97;5063256;28;20037;-81
2022/01/18 02:13:15;;;;;;;11.50;5.55;;;;;;;6.22;100.00;102717.69;5022718;28;20039;-81
2022/01/18 02:16:09;;;;;;;17.00;7.82;;;;;;;6.29;100.00;102748.41;5047080;28;20060;-80
2022/01/18 02:21:45;;;;;;;17.70;8.35;;;;;;;5.92;100.00;102724.03;5049449;28;20127;-80
2022/01/18 02:24:06;;;;;;;21.35;6.80;;;;;;;6.30;100.00;102747.47;5035262;28;20040;-83
2022/01/18 02:26:32;;;;;;;16.58;6.85;;;;;;;6.42;100.00;102735.97;5063583;28;20459;-76
2022/01/18 02:29:07;;;;;;;21.58;6.80;;;;;;;6.39;100.00;102720.16;5017718;28;20041;-85
2022/01/18 02:31:33;;;;;;;15.13;6.20;;;;;;;6.41;100.00;102723.59;5013803;28;20143;-79
2022/01/18 02:34:09;;;;;;;23.65;8.05;;;;;;;6.41;100.00;102728.94;5049547;28;20063;-79
2022/01/18 02:36:34;;;;;;;28.38;8.73;;;;;;;6.32;100.00;102706.31;5031132;28;20035;-79
2022/01/18 02:39:02;;;;;;;16.25;6.63;;;;;;;6.16;100.00;102697.59;5030650;28;20115;-80
2022/01/18 02:41:30;;;;;;;17.35;6.47;;;;;;;5.99;100.00;102701.34;5030376;28;20040;-84
2022/01/18 02:44:01;;;;;;;20.33;7.78;;;;;;;5.87;100.00;102708.28;5046519;28;20032;-80
2022/01/18 02:46:27;;;;;;;17.38;6.65;;;;;;;5.75;100.00;102716.25;5032108;28;20085;-77
2022/01/18 02:48:55;;;;;;;38.80;7.60;;;;;;;5.65;100.00;102722.13;5030016;28;20044;-78
2022/01/18 02:51:21;;;;;;;19.55;7.03;;;;;;;5.64;100.00;102733.78;5047846;28;20036;-79
2022/01/18 02:54:04;;;;;;;15.50;6.15;;;;;;;5.55;100.00;102734.34;5060865;28;20037;-77
2022/01/18 02:56:36;;;;;;;11.35;5.40;;;;;;;5.42;100.00;102728.88;5067752;28;20078;-83
2022/01/18 02:59:16;;;;;;;21.42;7.22;;;;;;;5.54;100.00;102721.09;5028659;28;20078;-80
2022/01/18 03:04:32;;;;;;;12.18;6.10;;;;;;;5.60;100.00;102712.72;5036330;28;20033;-78
2022/01/18 03:06:58;;;;;;;19.55;7.72;;;;;;;5.60;100.00;102713.56;5050678;28;20086;-77
2022/01/18 03:09:23;;;;;;;14.85;6.60;;;;;;;5.63;100.00;102709.84;5034461;28;20040;-81
2022/01/18 03:11:49;;;;;;;25.17;6.63;;;;;;;5.61;100.00;102707.28;5033093;28;20078;-77
2022/01/18 03:14:17;;;;;;;12.50;5.63;;;;;;;5.63;100.00;102705.34;5019281;28;20075;-78
2022/01/18 03:16:43;;;;;;;19.55;7.38;;;;;;;5.80;100.00;102711.47;5018015;28;20487;-77
2022/01/18 03:19:09;;;;;;;7.70;4.18;;;;;;;5.89;100.00;102716.22;5021535;28;20076;-80
2022/01/18 03:21:34;;;;;;;15.30;7.28;;;;;;;5.98;100.00;102714.78;5034855;28;20036;-84
2022/01/18 03:24:13;;;;;;;16.70;6.80;;;;;;;6.19;100.00;102707.22;5052879;28;20128;-80
2022/01/18 03:28:04;;;;;;;14.82;6.28;;;;;;;6.47;100.00;102696.44;5022864;28;20391;-78
2022/01/18 03:29:26;;;;;;;12.73;6.53;;;;;;;6.56;100.00;102687.84;5045390;28;20485;-78
2022/01/18 03:31:55;;;;;;;12.15;5.25;;;;;;;6.64;100.00;102687.28;5028977;28;20040;-77
2022/01/18 03:34:21;;;;;;;19.60;7.68;;;;;;;6.75;100.00;102681.25;5048601;28;20037;-77
2022/01/18 03:36:47;;;;;;;18.25;6.05;;;;;;;6.69;100.00;102678.97;5047459;28;20031;-81
2022/01/18 03:39:13;;;;;;;16.70;6.65;;;;;;;6.77;100.00;102685.53;5051501;28;20036;-79
2022/01/18 03:41:39;;;;;;;19.52;6.53;;;;;;;6.76;100.00;102696.31;5050701;28;20059;-80
2022/01/18 03:44:05;;;;;;;17.10;5.32;;;;;;;6.74;100.00;102684.88;5018888;28;20104;-78
2022/01/18 03:46:31;;;;;;;14.68;5.10;;;;;;;6.82;100.00;102678.03;5037939;28;20054;-80
2022/01/18 03:48:58;;;;;;;11.60;3.72;;;;;;;6.80;100.00;102665.72;5035440;28;20036;-81
2022/01/18 03:51:26;;;;;;;10.63;5.78;;;;;;;6.82;100.00;102671.84;5034760;28;20124;-78
2022/01/18 03:53:52;;;;;;;13.60;6.70;;;;;;;6.77;100.00;102668.63;5029499;28;20482;-77
2022/01/18 03:56:17;;;;;;;13.40;4.38;;;;;;;6.71;100.00;102666.38;5029728;28;20040;-79
2022/01/18 03:58:45;;;;;;;14.75;5.65;;;;;;;6.59;100.00;102646.69;5028779;28;20037;-81
2022/01/18 04:01:11;;;;;;;18.15;5.35;;;;;;;6.49;100.00;102658.94;5049752;28;20467;-81
2022/01/18 04:03:37;;;;;;;11.05;5.43;;;;;;;6.32;100.00;102649.34;5017635;28;20041;-79
2022/01/18 04:06:02;;;;;;;19.75;6.95;;;;;;;6.14;100.00;102641.63;5016167;28;20037;-77
2022/01/18 04:08:28;;;;;;;9.00;5.00;;;;;;;6.04;100.00;102645.00;5015250;28;20072;-83
2022/01/18 04:10:54;;;;;;;17.90;7.53;;;;;;;5.87;100.00;102638.03;5045204;28;20036;-78
2022/01/18 04:13:22;;;;;;;19.25;5.32;;;;;;;5.73;100.00;102637.09;5019155;28;20043;-79
2022/01/18 04:15:47;;;;;;;18.85;6.13;;;;;;;5.64;100.00;102637.69;5030810;28;20044;-82
2022/01/18 04:28:55;;;;;;;13.80;5.28;;;;;;;5.57;100.00;102655.03;5050057;28;20079;-78
2022/01/18 04:31:21;;;;;;;10.60;4.60;;;;;;;5.65;100.00;102650.09;5052998;28;20051;-80
2022/01/18 04:33:50;;;;;;;12.90;6.30;;;;;;;5.81;100.00;102654.44;5035675;28;20067;-79
2022/01/18 04:36:17;;;;;;;18.10;6.63;;;;;;;5.84;100.00;102655.09;5048965;28;20036;-77
2022/01/18 04:38:43;;;;;;;10.65;5.57;;;;;;;5.87;100.00;102646.03;5046372;28;20036;-79
2022/01/18 04:41:12;;;;;;;24.83;7.25;;;;;;;5.99;100.00;102650.63;5034232;28;20029;-79
2022/01/18 04:48:49;;;;;;;9.85;4.75;;;;;;;6.29;100.00;102634.38;5037278;28;20036;-80
2022/01/18 04:51:15;;;;;;;14.00;4.97;;;;;;;6.42;100.00;102638.94;5018454;28;20540;-79
2022/01/18 04:53:52;;;;;;;20.58;7.13;;;;;;;6.56;100.00;102641.50;5011749;28;20040;-82
2022/01/18 04:59:00;;;;;;;18.45;6.07;;;;;;;6.77;100.00;102641.88;5049703;28;20032;-83
2022/01/18 05:01:26;;;;;;;13.48;6.13;;;;;;;6.82;100.00;102627.22;5026398;28;20037;-81
2022/01/18 05:03:52;;;;;;;19.92;6.40;;;;;;;6.88;100.00;102630.44;5049268;28;20032;-77
2022/01/18 05:06:19;;;;;;;17.33;6.00;;;;;;;6.91;100.00;102633.78;5016885;28;20131;-77
2022/01/18 05:08:44;;;;;;;24.17;8.93;;;;;;;6.95;100.00;102643.28;5032096;28;20207;-76
2022/01/18 05:11:14;;;;;;;15.00;7.00;;;;;;;6.94;100.00;102628.22;5021912;28;20047;-79
2022/01/18 05:21:34;;;;;;;17.98;6.15;;;;;;;6.87;100.00;102618.91;5031574;28;20133;-79
2022/01/18 05:24:02;;;;;;;15.20;6.20;;;;;;;6.88;100.00;102606.38;5016128;28;20036;-81
2022/01/18 05:26:31;;;;;;;16.15;6.72;;;;;;;6.95;100.00;102615.69;5046041;28;20039;-80
2022/01/18 05:28:57;;;;;;;18.05;5.95;;;;;;;6.93;100.00;102613.16;5020805;28;20033;-86
2022/01/18 05:31:24;;;;;;;26.80;10.98;;;;;;;6.88;100.00;102615.28;5064769;28;20119;-79
2022/01/18 05:33:49;;;;;;;26.90;8.05;;;;;;;6.89;100.00;102594.75;5050149;28;20043;-79
2022/01/18 05:36:15;;;;;;;22.45;7.30;;;;;;;6.86;100.00;102595.81;5014298;28;20280;-81
2022/01/18 05:38:41;;;;;;;14.63;6.65;;;;;;;6.90;100.00;102593.75;5024120;28;20062;-86
2022/01/18 05:41:09;;;;;;;15.43;7.30;;;;;;;6.89;100.00;102589.38;5061321;28;20028;-80
2022/01/18 05:43:34;;;;;;;19.77;7.03;;;;;;;6.85;100.00;102578.03;5045769;28;20122;-81
2022/01/18 05:46:01;;;;;;;19.67;8.23;;;;;;;6.82;100.00;102578.25;5046671;28;20266;-77
2022/01/18 05:48:27;;;;;;;25.58;5.90;;;;;;;6.80;100.00;102586.41;5019730;28;20627;-77
2022/01/18 05:50:59;;;;;;;21.27;6.13;;;;;;;6.77;100.00;102572.38;5016703;28;20608;-81
2022/01/18 05:53:28;;;;;;;12.80;5.03;;;;;;;6.71;100.00;102570.97;5042920;28;20372;-79
2022/01/18 05:55:54;;;;;;;11.18;4.75;;;;;;;6.73;100.00;102576.22;5045427;28;20029;-79
2022/01/18 05:58:20;;;;;;;15.45;5.93;;;;;;;6.71;100.00;102575.47;5032326;28;20047;-79
2022/01/18 06:00:52;;;;;;;16.15;7.30;;;;;;;6.72;100.00;102571.81;5016163;28;20067;-81
2022/01/18 06:03:26;;;;;;;11.30;5.40;;;;;;;6.73;100.00;102585.09;5030325;28;20062;-82
2022/01/18 06:08:42;;;;;;;25.08;8.02;;;;;;;6.77;100.00;102575.91;5037850;28;20496;-81
2022/01/18 06:11:10;;;;;;;17.38;6.82;;;;;;;6.82;100.00;102570.22;5049036;28;20033;-79
2022/01/18 06:13:36;;;;;;;13.02;6.72;;;;;;;6.88;100.00;102571.63;5033755;28;20107;-84
2022/01/18 06:16:02;;;;;;;13.13;5.45;;;;;;;6.93;100.00;102570.34;5048243;28;20055;-77
2022/01/18 06:18:28;;;;;;;21.58;6.45;;;;;;;7.04;100.00;102567.78;5048217;28;20067;-79
2022/01/18 06:20:53;;;;;;;17.95;6.32;;;;;;;7.07;100.00;102565.84;5030503;28;20044;-79
2022/01/18 06:23:20;;;;;;;22.65;6.38;;;;;;;7.09;100.00;102562.06;5028889;28;20039;-79
2022/01/18 06:25:46;;;;;;;12.13;5.28;;;;;;;6.99;100.00;102545.00;5014637;28;20036;-77
2022/01/18 06:28:11;;;;;;;13.65;6.07;;;;;;;6.96;100.00;102558.56;5016114;28;20438;-79
2022/01/18 06:30:37;;;;;;;20.55;7.45;;;;;;;6.88;100.00;102564.47;5016739;28;20489;-80
2022/01/18 06:33:03;;;;;;;26.05;8.18;;;;;;;6.80;100.00;102556.09;5034394;28;20182;-80
2022/01/18 06:35:29;;;;;;;24.13;6.97;;;;;;;6.71;100.00;102554.94;5036223;28;20037;-79
2022/01/18 06:37:54;;;;;;;19.70;7.88;;;;;;;6.58;100.00;102560.28;5032918;28;20102;-82
2022/01/18 06:40:20;;;;;;;22.70;9.95;;;;;;;6.46;100.00;102557.59;5033392;28;20497;-77
2022/01/18 06:42:46;;;;;;;24.17;9.07;;;;;;;6.44;100.00;102559.53;5034634;28;20174;-77
2022/01/18 06:45:12;;;;;;;30.08;11.77;;;;;;;6.44;100.00;102556.84;5021428;28;20029;-77
2022/01/18 06:47:38;;;;;;;31.33;10.80;;;;;;;6.55;100.00;102576.53;5067095;28;20039;-77
2022/01/18 06:50:05;;;;;;;30.45;11.93;;;;;;;6.72;100.00;102577.16;5052258;28;20032;-77
2022/01/18 06:52:31;;;;;;;20.25;10.18;;;;;;;6.83;100.00;102582.66;5040041;28;20036;-80
2022/01/18 06:54:57;;;;;;;22.52;7.80;;;;;;;6.86;100.00;102566.38;5043242;28;20363;-77
2022/01/18 06:57:23;;;;;;;24.55;7.47;;;;;;;6.92;100.00;102554.41;5068660;28;20039;-77
2022/01/18 06:59:49;;;;;;;14.20;6.63;;;;;;;7.02;100.00;102564.34;5014699;28;20032;-81
2022/01/18 07:02:14;;;;;;;19.45;8.13;;;;;;;7.07;100.00;102557.81;5051941;28;20059;-81
2022/01/18 07:04:40;;;;;;;25.67;10.65;;;;;;;7.07;100.00;102555.16;5018323;28;20394;-80
2022/01/18 07:07:06;;;;;;;11.00;6.97;;;;;;;7.13;100.00;102566.25;5034446;28;20036;-77
2022/01/18 07:09:32;;;;;;;10.75;5.53;;;;;;;7.29;100.00;102555.31;5015985;28;20489;-78
2022/01/18 07:12:00;;;;;;;12.05;6.53;;;;;;;7.41;100.00;102551.75;5050459;28;20028;-78
2022/01/18 07:14:26;;;;;;;11.38;5.88;;;;;;;7.45;100.00;102545.22;5050786;28;20604;-77
2022/01/18 07:16:52;;;;;;;11.55;6.18;;;;;;;7.44;100.00;102540.84;5033486;28;20031;-77
2022/01/18 07:19:19;;;;;;;16.17;7.25;;;;;;;7.42;100.00;102534.72;5022810;28;20044;-83
2022/01/18 07:21:45;;;;;;;12.80;6.38;;;;;;;7.40;100.00;102539.31;5037483;28;20040;-84
2022/01/18 07:24:17;;;;;;;22.02;10.23;;;;;;;7.38;100.00;102553.78;5067122;28;20029;-83
2022/01/18 07:26:43;;;;;;;23.48;8.98;;;;;;;7.38;100.00;102560.03;5051065;28;20519;-80
2022/01/18 07:29:09;;;;;;;13.57;6.82;;;;;;;7.36;100.00;102555.75;5034462;28;20123;-83
2022/01/18 07:31:35;;;;;;;26.27;10.32;;;;;;;7.35;100.00;102552.19;5034355;28;20108;-77
2022/01/18 07:34:01;;;;;;;21.35;9.13;;;;;;;7.29;100.00;102544.63;5032986;28;20028;-76
2022/01/18 07:36:26;;;;;;;22.63;10.75;;;;;;;7.30;100.00;102566.88;5018093;28;20024;-84
2022/01/18 07:38:55;;;;;;;20.77;11.10;;;;;;;7.29;100.00;102563.34;5033424;28;20032;-79
2022/01/18 07:41:21;;;;;;;17.42;9.10;;;;;;;7.09;100.00;102535.31;5037226;28;20032;-76
2022/01/18 07:43:47;;;;;;;26.88;11.60;;;;;;;7.19;100.00;102548.91;5021170;28;20048;-77
2022/01/18 07:46:13;;;;;;;17.30;8.02;;;;;;;7.22;100.00;102554.91;5020021;28;20044;-79
2022/01/18 07:48:38;;;;;;;14.35;8.27;;;;;;;7.37;100.00;102549.41;5034839;28;20020;-77
2022/01/18 07:51:04;;;;;;;14.45;5.30;;;;;;;7.42;100.00;102545.44;5020408;28;20073;-80
2022/01/18 07:53:30;;;;;;;17.20;8.48;;;;;;;7.61;100.00;102552.97;5018410;28;20615;-80
2022/01/18 07:55:55;;;;;;;12.98;6.38;;;;;;;7.71;100.00;102553.16;5049915;28;20028;-79
2022/01/18 07:58:23;;;;;;;13.52;7.10;;;;;;;7.75;100.00;102549.28;5019569;28;20037;-77
2022/01/18 08:00:49;;;;;;;12.98;7.05;;;;;;;7.82;100.00;102553.22;5014733;28;20056;-77
2022/01/18 08:03:15;;;;;;;7.50;4.88;;;;;;;7.88;100.00;102543.88;5035826;28;20486;-87
2022/01/18 08:05:41;;;;;;;13.57;7.25;;;;;;;7.97;100.00;102550.38;5048342;28;20056;-76
2022/01/18 08:08:07;;;;;;;15.15;6.93;;;;;;;8.00;100.00;102548.31;5036143;28;20051;-80
2022/01/18 08:10:33;;;;;;;19.83;8.05;;;;;;;8.01;100.00;102554.53;5014866;28;20112;-79
2022/01/18 08:13:02;;;;;;;10.27;5.25;;;;;;;8.00;100.00;102539.44;5036105;28;20137;-80
2022/01/18 08:15:41;;;;;;;10.68;5.10;;;;;;;8.07;100.00;102549.56;5032493;28;20067;-79
2022/01/18 08:18:16;;;;;;;8.52;4.13;;;;;;;8.06;100.00;102547.84;5036655;28;20033;-86
2022/01/18 08:20:42;;;;;;;16.50;6.15;;;;;;;8.03;100.00;102540.03;5028431;28;20045;-78
2022/01/18 08:23:11;;;;;;;16.83;6.68;;;;;;;8.09;100.00;102561.00;5038717;28;20050;-80
2022/01/18 08:25:39;;;;;;;15.63;6.65;;;;;;;8.01;100.00;102544.66;5026762;28;20126;-79
2022/01/18 08:28:04;;;;;;;12.90;6.90;;;;;;;7.95;100.00;102538.91;5029312;28;20303;-79
2022/01/18 08:30:30;;;;;;;17.35;7.75;;;;;;;8.04;100.00;102562.31;5033636;28;20040;-78
2022/01/18 08:32:56;;;;;;;20.88;7.65;;;;;;;7.98;100.00;102560.09;5030767;28;20067;-81
2022/01/18 08:35:23;;;;;;;24.75;8.15;;;;;;;7.96;100.00;102564.72;5037514;28;20028;-80
2022/01/18 08:37:49;;;;;;;17.25;8.57;;;;;;;7.87;100.00;102555.56;5033137;28;20362;-78
2022/01/18 08:40:15;;;;;;;19.90;7.00;;;;;;;7.86;100.00;102553.88;5017620;28;20465;-77
2022/01/18 08:42:41;;;;;;;23.55;8.18;;;;;;;7.77;100.00;102554.53;5034384;28;20127;-85
2022/01/18 08:45:07;;;;;;;13.20;6.72;;;;;;;7.70;100.00;102551.47;5021691;28;20044;-78
2022/01/18 08:47:33;;;;;;;29.10;10.85;;;;;;;7.61;100.00;102550.28;5018274;28;20124;-81
2022/01/18 08:49:59;;;;;;;29.85;13.63;;;;;;;7.53;100.00;102546.47;5068835;28;20029;-79
2022/01/18 08:52:25;;;;;;;17.00;7.38;;;;;;;7.49;100.00;102544.03;5017877;28;20417;-78
2022/01/18 08:54:50;;;;;;;9.43;5.65;;;;;;;7.39;100.00;102529.59;5018980;28;20044;-78
2022/01/18 08:57:16;;;;;;;17.75;8.27;;;;;;;7.46;100.00;102546.06;5031097;28;20127;-82
2022/01/18 08:59:43;;;;;;;19.73;9.23;;;;;;;7.43;100.00;102540.94;5016634;28;20033;-81
2022/01/18 09:02:09;;;;;;;11.50;4.78;;;;;;;7.37;100.00;102534.19;5034533;28;20048;-77
2022/01/18 09:04:35;;;;;;;12.52;6.18;;;;;;;7.36;100.00;102532.50;5044680;28;20032;-77
2022/01/18 09:07:09;;;;;;;22.77;8.35;;;;;;;7.33;100.00;102524.72;5036382;28;20040;-77
2022/01/18 09:09:39;;;;;;;9.57;6.05;;;;;;;7.31;100.00;102507.91;5030446;28;20041;-77
2022/01/18 09:12:10;;;;;;;15.88;7.28;;;;;;;7.31;100.00;102510.56;5028813;28;20041;-78
2022/01/18 09:14:37;;;;;;;9.82;4.68;;;;;;;7.29;100.00;102517.84;5031947;28;20036;-78
2022/01/18 09:17:03;;;;;;;12.50;3.67;;;;;;;7.30;100.00;102530.25;5034178;28;20037;-76
2022/01/18 09:19:28;;;;;;;2.15;1.95;;;;;;;7.29;100.00;102539.25;5030290;28;20471;-76
2022/01/18 09:21:54;;;;;;;7.47;2.72;;;;;;;7.25;100.00;102530.63;5024782;28;20047;-77
2022/01/18 09:24:20;;;;;;;0.93;0.90;;;;;;;7.25;100.00;102521.69;5031386;28;20090;-76
2022/01/18 09:26:45;;;;;;;1.45;1.27;;;;;;;7.26;100.00;102520.75;5027840;28;20032;-78
2022/01/18 09:29:12;;;;;;;0.60;0.60;;;;;;;7.26;100.00;102510.91;5041803;28;20032;-79
2022/01/18 09:31:39;;;;;;;1.30;1.20;;;;;;;7.11;100.00;102490.59;5035460;28;20493;-78
2022/01/18 09:34:05;;;;;;;0.40;0.40;;;;;;;7.29;100.00;102527.72;5034622;28;20044;-77
2022/01/18 09:36:31;;;;;;;0.55;0.55;;;;;;;7.22;100.00;102535.31;5049425;28;20180;-82
2022/01/18 09:38:56;;;;;;;0.40;0.40;;;;;;;7.29;100.00;102551.78;5049193;28;20474;-78
2022/01/18 09:41:27;;;;;;;0.40;0.40;;;;;;;7.29;100.00;102549.13;5024537;28;20304;-76
2022/01/18 09:43:53;;;;;;;0.50;0.50;;;;;;;7.31;100.00;102564.09;5027347;28;20097;-78
2022/01/18 09:46:19;;;;;;;0.40;0.40;;;;;;;7.33;100.00;102566.63;5032188;28;20487;-85
2022/01/18 09:48:45;;;;;;;0.55;0.55;;;;;;;7.37;100.00;102554.75;5034504;28;20093;-79
2022/01/18 09:51:12;;;;;;;0.40;0.40;;;;;;;7.40;100.00;102567.91;5032743;28;20037;-78
2022/01/18 09:53:37;;;;;;;0.50;0.50;;;;;;;7.50;100.00;102568.97;5057016;28;20078;-80
2022/01/18 09:56:06;;;;;;;0.52;0.52;;;;;;;7.52;100.00;102552.81;5040251;28;20053;-79
2022/01/18 09:58:31;;;;;;;0.57;0.57;;;;;;;7.63;100.00;102567.09;5017694;28;20068;-79
2022/01/18 10:00:58;;;;;;;0.40;0.40;;;;;;;7.73;100.00;102564.63;5041156;28;20094;-80
2022/01/18 10:03:33;;;;;;;0.88;0.88;;;;;;;7.85;100.00;102557.47;5052400;28;20024;-79
2022/01/18 10:05:59;;;;;;;0.50;0.50;;;;;;;7.86;100.00;102545.81;5035555;28;20043;-78
2022/01/18 10:08:25;;;;;;;1.10;0.70;;;;;;;7.91;100.00;102557.91;5036211;28;20032;-80
2022/01/18 10:11:00;;;;;;;2.65;1.23;;;;;;;7.93;100.00;102558.63;5036647;28;20554;-79
2022/01/18 10:13:29;;;;;;;0.50;0.50;;;;;;;7.95;100.00;102563.03;5069824;28;20025;-80
2022/01/18 10:16:20;;;;;;;0.50;0.50;;;;;;;7.93;100.00;102558.63;5020320;28;20033;-79
2022/01/18 10:18:50;;;;;;;0.47;0.47;;;;;;;7.97;100.00;102569.13;5033876;28;20288;-79
2022/01/18 10:21:24;;;;;;;0.60;0.60;;;;;;;7.99;100.00;102559.13;5024773;28;20037;-81
2022/01/18 10:23:50;;;;;;;0.50;0.50;;;;;;;8.09;100.00;102552.13;5051194;28;20479;-79
2022/01/18 10:26:20;;;;;;;0.52;0.52;;;;;;;8.10;100.00;102546.66;5033017;28;20028;-79
2022/01/18 10:28:46;;;;;;;0.68;0.68;;;;;;;8.28;100.00;102548.88;5033207;28;20033;-81
2022/01/18 10:31:34;;;;;;;0.70;0.70;;;;;;;8.38;100.00;102540.03;5047258;28;20044;-79
2022/01/18 10:36:58;;;;;;;0.50;0.50;;;;;;;8.79;100.00;102551.25;5051173;28;20029;-80
2022/01/18 10:39:29;;;;;;;0.63;0.63;;;;;;;9.00;100.00;102544.19;5052071;28;20072;-78
2022/01/18 10:41:56;;;;;;;1.52;1.30;;;;;;;8.98;100.00;102537.22;5020690;28;20028;-76
2022/01/18 10:44:23;;;;;;;0.70;0.70;;;;;;;9.06;100.00;102545.53;5032003;28;20036;-83
2022/01/18 10:46:52;;;;;;;0.50;0.50;;;;;;;9.10;100.00;102538.91;5024542;28;20033;-81
2022/01/18 10:49:46;;;;;;;0.73;0.70;;;;;;;8.92;100.00;102529.69;5058563;28;20117;-78
2022/01/18 10:52:24;;;;;;;1.52;1.30;;;;;;;8.79;100.00;102537.84;5049705;28;20455;-78
2022/01/18 10:54:52;;;;;;;0.50;0.50;;;;;;;8.85;100.00;102531.97;5045666;28;20037;-77
2022/01/18 10:57:40;;;;;;;0.70;0.70;;;;;;;8.79;100.00;102536.00;5048236;28;20058;-79
2022/01/18 11:00:16;;;;;;;1.02;0.93;;;;;;;8.72;100.00;102537.44;5032140;28;20417;-78
2022/01/18 11:02:50;;;;;;;0.50;0.50;;;;;;;8.72;100.00;102544.66;5017299;28;20111;-78
2022/01/18 11:05:29;;;;;;;;;;;;;;;8.65;100.00;102546.94;5043900;28;20032;-78
2022/01/18 11:07:56;;;;;;;4.90;1.98;;;;;;;8.54;100.00;102534.38;5026813;28;19917;-77
2022/01/18 11:10:25;;;;;;;0.40;0.40;;;;;;;8.49;100.00;102535.69;5020069;28;20035;-78
2022/01/18 11:13:03;;;;;;;0.50;0.50;;;;;;;8.47;100.00;102537.66;5017052;28;20126;-80
2022/01/18 11:15:31;;;;;;;0.80;0.80;;;;;;;8.47;100.00;102540.34;5017994;28;20577;-77
2022/01/18 11:18:00;;;;;;;0.60;0.60;;;;;;;8.52;100.00;102547.06;5034560;28;20247;-77
2022/01/18 11:20:31;;;;;;;0.60;0.60;;;;;;;8.69;100.00;102539.53;5027697;28;20170;-77
2022/01/18 11:22:57;;;;;;;0.60;0.60;;;;;;;8.80;100.00;102523.44;5036026;28;20028;-77
2022/01/18 11:25:23;;;;;;;0.50;0.50;;;;;;;9.03;100.00;102540.41;5038491;28;20417;-78
2022/01/18 11:27:51;;;;;;;0.40;0.40;;;;;;;9.23;100.00;102530.75;5020575;28;20556;-77
2022/01/18 11:30:19;;;;;;;0.50;0.50;;;;;;;9.27;100.00;102526.00;5029739;28;20523;-77
2022/01/18 11:32:46;;;;;;;0.50;0.50;;;;;;;9.29;100.00;102519.53;5018857;28;20033;-80
2022/01/18 11:35:11;;;;;;;0.50;0.50;;;;;;;9.26;100.00;102525.13;5020669;28;20066;-77
2022/01/18 11:38:02;;;;;;;0.85;0.70;;;;;;;9.15;100.00;102522.47;5067504;28;20032;-77
2022/01/18 11:40:46;;;;;;;0.55;0.55;;;;;;;9.06;100.00;102528.56;5055805;28;20035;-77
2022/01/18 11:43:13;;;;;;;0.50;0.50;;;;;;;8.79;100.00;102514.53;5019886;28;20032;-78
2022/01/18 11:45:42;;;;;;;0.60;0.60;;;;;;;8.78;100.00;102523.56;5036504;28;20119;-77
2022/01/18 11:48:13;;;;;;;0.40;0.40;;;;;;;8.77;100.00;102526.38;5031864;28;20526;-77
2022/01/18 11:51:05;;;;;;;0.43;0.43;;;;;;;8.60;100.00;102506.25;5049089;28;20024;-82
2022/01/18 11:56:11;;;;;;;1.02;0.70;;;;;;;8.49;100.00;102515.09;5038208;28;20032;-77
2022/01/18 11:58:37;;;;;;;1.25;1.15;;;;;;;8.43;100.00;102509.38;5037941;28;20032;-78
2022/01/18 12:01:05;;;;;;;0.60;0.60;;;;;;;8.46;100.00;102511.81;5017791;28;20127;-80
2022/01/18 12:03:42;;;;;;;0.45;0.45;;;;;;;8.43;100.00;102512.91;5053856;28;20585;-78
2022/01/18 12:06:11;;;;;;;0.50;0.50;;;;;;;8.41;100.00;102500.59;5050199;28;20047;-82
2022/01/18 12:08:39;;;;;;;0.68;0.68;;;;;;;8.44;100.00;102500.34;5027311;28;20442;-77
2022/01/18 12:11:25;;;;;;;0.50;0.50;;;;;;;8.42;100.00;102503.16;5025701;28;20068;-79
2022/01/18 12:13:59;;;;;;;0.50;0.50;;;;;;;8.40;100.00;102482.81;5019060;28;20040;-83
2022/01/18 12:16:29;;;;;;;0.80;0.80;;;;;;;8.37;100.00;102492.75;5018165;28;20036;-81
2022/01/18 12:19:04;;;;;;;0.75;0.75;;;;;;;8.33;100.00;102471.66;5047241;28;20035;-82
2022/01/18 12:21:32;;;;;;;2.58;1.13;;;;;;;8.31;100.00;102468.28;5046726;28;20032;-82
2022/01/18 12:24:13;;;;;;;0.90;0.57;;;;;;;8.36;100.00;102458.91;5063205;28;20060;-82
2022/01/18 12:26:43;;;;;;;3.20;1.30;;;;;;;8.40;100.00;102469.41;5027360;28;20033;-83
2022/01/18 12:34:43;;;;;;;0.70;0.70;;;;;;;8.51;100.00;102453.34;5045743;28;20052;-78
2022/01/18 12:37:14;;;;;;;0.88;0.88;;;;;;;8.51;100.00;102453.34;5034453;28;20040;-77
2022/01/18 12:40:03;;;;;;;0.50;0.50;;;;;;;8.53;100.00;102451.41;5049521;28;20098;-79